Taiwan Taoyuan International Airport
RCTP : rendu visible

Aérodrome :











RETROUVEZ-NOUS SUR...

 
LOGIN :

S'inscrire | Disclaimer

   EN    FR    IT 

 









Légende :    VFR   VFR Marginal   IFR   IFR Intensif   IFR Très Intensif
Visi : 
Plafond : 
>= 8 km
>= 3000ft
5 à 8 km
1000 à 3000 ft
1500m à 5 km
500 à 1000 ft
800 à 1500m
200 à 500 ft
< 800m
< 200 ft
Symboles :   Orages  Brouillard  Fortes neiges  Fortes précipitations  Vent > 20 kt






- Altitude de l'aérodrome : 106 ft
- Code IATA : TPE


RCTP - Taiwan Taoyuan International

DERNIER METAR :
  • 042030Z 22006KT 190V250 9999 FEW020 28/25 Q1007 NOSIG RMK A2975

METARs EXPIRÉS :
  • 042000Z 21004KT 9999 FEW020 28/25 Q1007 NOSIG RMK A2975
  • 041930Z VRB02KT 9999 FEW020 28/25 Q1007 NOSIG RMK A2975
  • 041900Z 16003KT 9999 FEW020 28/25 Q1007 NOSIG RMK A2975
  • 041830Z 18004KT 9999 FEW020 28/25 Q1007 NOSIG RMK A2975
  • 041800Z 18003KT 9999 FEW020 28/25 Q1007 NOSIG RMK A2976

TAF TAF RCTP
Valide du 04 à 18h jusqu'au 06 à 00h UTC


041700Z 0418/0524 20005KT 9999 FEW020 BKN032
BECMG 0500/0502 25010KT
TEMPO 0504/0508 26015KT
BECMG 0510/0512 20005KT
TEMPO 0520/0524 24010KT
FIR RCAA / Asie



MET'MAP, la Météo Aéronautique d'un coup d'oeil ! - Copyright ORBIFLY Décembre 2007 - Disclaimer

ORBIFLY MET'MAP TEAM :

Programmation & Développement : Alexandra Zaïnal
Sur une idée originale de : Baudouin d'Aumeries
Assistance à la programmation : Marc-Olivier Méhu
Soutien technique & logistique : Manuel Goepfert

Contact : metmap@orbifly.com




SOURCES & CREDITS :

   NOAA       Earth
Advisory